createdAt,value
2018-06-12T00:00:49.769Z,7.87
2018-06-12T00:03:18.101Z,8.53
2018-06-12T00:05:46.571Z,7.23
2018-06-12T00:08:15.582Z,8.40
2018-06-12T00:10:43.849Z,8.20
2018-06-12T00:13:12.186Z,7.67
2018-06-12T00:15:40.616Z,8.07
2018-06-12T00:18:09.853Z,8.03
2018-06-12T00:20:38.841Z,8.30
2018-06-12T00:23:07.213Z,8.17
2018-06-12T00:25:35.517Z,8.00
2018-06-12T00:28:03.936Z,7.87
2018-06-12T00:30:32.462Z,8.10
2018-06-12T00:33:00.846Z,8.03
2018-06-12T00:35:29.105Z,8.50
2018-06-12T00:37:57.440Z,8.20
2018-06-12T00:40:25.800Z,7.87
2018-06-12T00:42:55.426Z,7.80
2018-06-12T00:45:23.821Z,8.57
2018-06-12T00:47:52.657Z,7.93
2018-06-12T00:50:21.126Z,8.07
2018-06-12T00:52:49.478Z,8.53
2018-06-12T00:55:17.885Z,8.60
2018-06-12T00:57:46.218Z,7.90
2018-06-12T01:00:14.733Z,7.60
2018-06-12T01:02:43.150Z,8.30
2018-06-12T01:05:11.607Z,9.23
2018-06-12T01:07:39.973Z,9.13
2018-06-12T01:10:09.677Z,8.73
2018-06-12T01:12:38.075Z,8.83
2018-06-12T01:15:06.434Z,8.33
2018-06-12T01:17:34.755Z,9.50
2018-06-12T01:20:03.753Z,9.40
2018-06-12T01:22:32.114Z,9.67
2018-06-12T01:25:00.435Z,9.57
2018-06-12T01:27:29.527Z,9.70
2018-06-12T01:29:58.068Z,9.80
2018-06-12T01:32:26.531Z,9.67
2018-06-12T01:34:54.870Z,9.37
2018-06-12T01:37:23.682Z,9.80
2018-06-12T01:39:53.952Z,10.50
2018-06-12T01:42:22.354Z,9.60
2018-06-12T01:44:50.809Z,9.13
2018-06-12T01:47:19.687Z,10.70
2018-06-12T01:49:48.006Z,11.10
2018-06-12T01:52:16.443Z,10.70
2018-06-12T01:54:44.865Z,11.97
2018-06-12T01:57:13.187Z,11.47
2018-06-12T01:59:41.702Z,11.47
2018-06-12T02:02:11.046Z,11.63
2018-06-12T02:04:40.374Z,11.90
2018-06-12T02:07:08.741Z,11.60
2018-06-12T02:19:23.987Z,14.80
2018-06-12T02:21:52.293Z,14.07
2018-06-12T02:24:20.532Z,15.80
2018-06-12T02:26:48.826Z,14.37
2018-06-12T02:29:17.085Z,14.57
2018-06-12T02:31:45.461Z,15.80
2018-06-12T02:34:13.893Z,16.07
2018-06-12T02:36:42.262Z,16.63
2018-06-12T02:39:10.560Z,16.77
2018-06-12T02:41:40.066Z,17.43
2018-06-12T02:44:08.976Z,15.87
2018-06-12T02:46:38.073Z,15.57
2018-06-12T02:49:08.132Z,14.80
2018-06-12T02:51:36.509Z,15.63
2018-06-12T02:54:04.954Z,15.30
2018-06-12T02:56:33.302Z,16.93
2018-06-12T02:59:01.571Z,16.03
2018-06-12T03:01:30.015Z,16.77
2018-06-12T03:03:58.396Z,17.13
2018-06-12T03:06:27.639Z,18.40
2018-06-12T03:08:56.009Z,17.43
2018-06-12T03:11:30.306Z,18.17
2018-06-12T03:13:58.982Z,18.03
2018-06-12T03:16:27.483Z,17.33
2018-06-12T03:18:56.329Z,17.43
2018-06-12T03:21:30.793Z,16.47
2018-06-12T03:23:59.377Z,16.47
2018-06-12T03:26:27.997Z,29.93
2018-06-12T03:28:57.612Z,16.40
2018-06-12T03:31:26.633Z,15.57
2018-06-12T03:33:55.023Z,16.67
2018-06-12T03:36:24.362Z,15.97
2018-06-12T03:38:52.654Z,14.93
2018-06-12T03:41:22.408Z,16.07
2018-06-12T03:43:50.681Z,15.10
2018-06-12T03:46:19.012Z,13.90
2018-06-12T03:48:48.154Z,15.03
2018-06-12T03:51:17.189Z,14.77
2018-06-12T03:53:45.550Z,15.43
2018-06-12T03:56:13.844Z,14.77
2018-06-12T03:58:42.763Z,14.50
2018-06-12T04:01:11.373Z,13.87
2018-06-12T04:03:40.141Z,14.00
2018-06-12T04:06:08.753Z,15.83
2018-06-12T04:08:37.064Z,14.50
2018-06-12T04:11:06.054Z,13.80
2018-06-12T04:13:34.569Z,14.20
2018-06-12T04:16:04.984Z,12.03
2018-06-12T04:18:33.970Z,13.13
2018-06-12T04:21:02.995Z,13.40
2018-06-12T04:23:31.390Z,12.83
2018-06-12T04:26:07.029Z,11.73
2018-06-12T04:28:43.786Z,12.47
2018-06-12T04:31:12.128Z,11.77
2018-06-12T04:33:40.605Z,11.20
2018-06-12T04:36:09.142Z,11.40
2018-06-12T04:38:37.651Z,11.97
2018-06-12T04:41:07.126Z,11.20
2018-06-12T04:43:35.466Z,11.87
2018-06-12T04:46:03.902Z,11.67
2018-06-12T04:48:32.754Z,11.20
2018-06-12T04:51:01.712Z,11.33
2018-06-12T04:53:30.037Z,11.03
2018-06-12T04:55:58.367Z,11.30
2018-06-12T04:58:26.678Z,10.93
2018-06-12T05:00:55.737Z,10.60
2018-06-12T05:03:24.069Z,9.80
2018-06-12T05:05:52.511Z,11.20
2018-06-12T05:08:20.817Z,10.00
2018-06-12T05:10:49.119Z,9.50
2018-06-12T05:13:17.457Z,10.63
2018-06-12T05:15:45.810Z,9.93
2018-06-12T05:18:14.189Z,10.40
2018-06-12T05:20:43.392Z,10.97
2018-06-12T05:23:11.833Z,11.17
2018-06-12T05:25:40.289Z,11.00
2018-06-12T05:28:11.741Z,11.70
2018-06-12T05:30:46.925Z,11.27
2018-06-12T05:33:17.689Z,10.93
2018-06-12T05:35:49.902Z,10.63
2018-06-12T05:38:19.661Z,10.73
2018-06-12T05:40:49.210Z,11.10
2018-06-12T05:43:22.191Z,10.83
2018-06-12T05:45:52.356Z,11.13
2018-06-12T05:48:21.018Z,11.00
2018-06-12T05:53:40.896Z,10.13
2018-06-12T05:56:13.399Z,10.07
2018-06-12T05:58:43.105Z,9.93
2018-06-12T06:01:17.677Z,9.53
2018-06-12T06:03:50.380Z,10.27
2018-06-12T06:06:19.391Z,10.03
2018-06-12T06:08:49.146Z,10.07
2018-06-12T06:11:19.448Z,9.57
2018-06-12T06:13:49.050Z,9.27
2018-06-12T06:16:17.568Z,9.07
2018-06-12T06:18:46.173Z,8.73
2018-06-12T06:21:14.663Z,8.60
2018-06-12T06:23:43.267Z,7.83
2018-06-12T06:26:12.498Z,8.33
2018-06-12T06:28:42.561Z,8.77
2018-06-12T06:31:11.247Z,8.63
2018-06-12T06:33:41.089Z,7.60
2018-06-12T06:36:10.797Z,8.00
2018-06-12T06:38:40.894Z,8.07
2018-06-12T06:41:10.090Z,7.83
2018-06-12T06:43:39.758Z,7.57
2018-06-12T06:46:10.631Z,7.50
2018-06-12T06:48:39.478Z,7.13
2018-06-12T06:51:08.346Z,6.70
2018-06-12T06:53:36.783Z,7.70
2018-06-12T06:56:05.171Z,6.30
2018-06-12T06:58:33.561Z,7.23
2018-06-12T07:01:02.886Z,6.87
2018-06-12T07:03:31.589Z,7.10
2018-06-12T07:06:00.631Z,6.30
2018-06-12T07:08:29.797Z,6.60
2018-06-12T07:10:58.451Z,7.03
2018-06-12T07:13:27.836Z,6.23
2018-06-12T07:15:57.247Z,5.77
2018-06-12T07:18:26.145Z,6.60
2018-06-12T07:21:05.961Z,6.07
2018-06-12T07:23:35.257Z,6.20
2018-06-12T07:26:04.080Z,6.40
2018-06-12T07:28:33.822Z,6.07
2018-06-12T07:31:02.462Z,5.73
2018-06-12T07:33:31.157Z,5.13
2018-06-12T07:36:02.422Z,5.50
2018-06-12T07:38:30.914Z,4.70
2018-06-12T07:40:59.276Z,5.33
2018-06-12T07:43:27.823Z,4.47
2018-06-12T07:45:56.420Z,4.43
2018-06-12T07:48:24.920Z,4.60
2018-06-12T07:50:53.420Z,4.90
2018-06-12T07:53:22.415Z,4.50
2018-06-12T07:55:51.561Z,5.30
2018-06-12T07:58:19.899Z,4.73
2018-06-12T08:00:48.512Z,4.37
2018-06-12T08:03:16.910Z,5.23
2018-06-12T08:05:45.433Z,5.30
2018-06-12T08:08:13.872Z,5.10
2018-06-12T08:10:42.245Z,4.80
2018-06-12T08:13:10.587Z,4.60
2018-06-12T08:15:39.294Z,4.47
2018-06-12T08:18:07.810Z,4.47
2018-06-12T08:20:36.948Z,4.70
2018-06-12T08:23:05.441Z,5.07
2018-06-12T08:25:36.965Z,4.80
2018-06-12T08:28:05.982Z,5.40
2018-06-12T08:30:35.207Z,5.23
2018-06-12T08:33:03.655Z,5.43
2018-06-12T08:35:32.197Z,5.03
2018-06-12T08:38:00.624Z,5.03
2018-06-12T08:40:29.263Z,5.13
2018-06-12T08:42:57.950Z,5.43
2018-06-12T08:45:26.268Z,5.03
2018-06-12T08:47:55.494Z,5.57
2018-06-12T08:50:24.393Z,5.00
2018-06-12T08:52:52.816Z,5.07
2018-06-12T08:55:22.617Z,4.70
2018-06-12T08:57:51.017Z,5.17
2018-06-12T09:00:19.409Z,5.70
2018-06-12T09:02:47.830Z,5.30
2018-06-12T09:05:17.601Z,5.03
2018-06-12T09:07:46.002Z,5.07
2018-06-12T09:10:16.480Z,5.03
2018-06-12T09:12:45.127Z,5.23
2018-06-12T09:15:13.578Z,5.20
2018-06-12T09:17:42.711Z,5.50
2018-06-12T09:20:11.422Z,5.50
2018-06-12T09:22:40.053Z,5.07
2018-06-12T09:25:08.593Z,5.13
2018-06-12T09:27:42.326Z,4.80
2018-06-12T09:30:10.638Z,5.77
2018-06-12T09:32:39.133Z,5.27
2018-06-12T09:35:07.729Z,5.17
2018-06-12T09:37:37.472Z,5.40
2018-06-12T09:40:05.867Z,5.53
2018-06-12T09:42:34.391Z,5.40
2018-06-12T09:45:03.741Z,5.40
2018-06-12T09:47:32.691Z,5.37
2018-06-12T09:50:01.091Z,5.80
2018-06-12T09:52:29.609Z,5.53
2018-06-12T09:54:57.922Z,5.73
2018-06-12T09:57:26.414Z,5.37
2018-06-12T09:59:54.783Z,5.80
2018-06-12T10:02:23.410Z,5.30
2018-06-12T10:04:54.565Z,5.47
2018-06-12T10:07:23.777Z,5.50
2018-06-12T10:09:52.313Z,5.43
2018-06-12T10:12:21.749Z,5.97
2018-06-12T10:14:50.106Z,5.63
2018-06-12T10:17:18.660Z,5.90
2018-06-12T10:19:46.934Z,6.27
2018-06-12T10:22:15.381Z,6.00
2018-06-12T10:24:44.347Z,6.40
2018-06-12T10:27:13.418Z,6.43
2018-06-12T10:29:42.054Z,6.60
2018-06-12T10:32:11.650Z,6.33
2018-06-12T10:34:48.968Z,5.93
2018-06-12T10:37:24.237Z,5.47
2018-06-12T10:39:53.746Z,5.20
2018-06-12T10:42:22.102Z,5.27
2018-06-12T10:44:50.410Z,5.00
2018-06-12T10:47:18.951Z,4.73
2018-06-12T10:49:47.393Z,4.83
2018-06-12T10:52:15.840Z,4.90
2018-06-12T10:54:44.154Z,4.80
2018-06-12T10:57:13.150Z,4.17
2018-06-12T10:59:41.447Z,4.40
2018-06-12T11:02:09.859Z,4.40
2018-06-12T11:04:38.166Z,4.70
2018-06-12T11:07:06.625Z,3.87
2018-06-12T11:09:35.679Z,3.70
2018-06-12T11:12:04.694Z,3.90
2018-06-12T11:14:33.036Z,4.43
2018-06-12T11:17:02.259Z,3.80
2018-06-12T11:19:32.568Z,4.13
2018-06-12T11:22:02.282Z,3.93
2018-06-12T11:24:30.726Z,4.20
2018-06-12T11:26:59.384Z,3.60
2018-06-12T11:29:27.903Z,4.10
2018-06-12T11:31:56.474Z,3.87
2018-06-12T11:34:25.085Z,3.67
2018-06-12T11:36:53.483Z,3.60
2018-06-12T11:39:21.841Z,4.00
2018-06-12T11:41:50.408Z,4.43
2018-06-12T11:44:18.756Z,4.03
2018-06-12T11:46:47.105Z,4.00
2018-06-12T11:49:15.770Z,4.23
2018-06-12T11:51:44.062Z,4.13
2018-06-12T11:54:12.885Z,3.80
2018-06-12T11:56:41.250Z,3.73
2018-06-12T11:59:09.652Z,4.10
2018-06-12T12:01:37.979Z,4.10
2018-06-12T12:04:06.345Z,4.83
2018-06-12T12:06:34.910Z,4.00
2018-06-12T12:09:03.334Z,4.00
2018-06-12T12:11:36.021Z,4.10
2018-06-12T12:14:05.845Z,4.20
2018-06-12T12:16:35.218Z,4.00
2018-06-12T12:19:03.736Z,4.03
2018-06-12T12:21:32.878Z,4.10
2018-06-12T12:24:01.315Z,3.60
2018-06-12T12:26:29.926Z,4.03
2018-06-12T12:28:58.392Z,3.43
2018-06-12T12:31:27.252Z,4.47
2018-06-12T12:33:57.854Z,3.93
2018-06-12T12:36:26.243Z,3.90
2018-06-12T12:38:56.870Z,4.60
2018-06-12T12:41:36.330Z,4.07
2018-06-12T12:44:04.722Z,4.67
2018-06-12T12:46:33.146Z,4.17
2018-06-12T12:49:01.652Z,4.40
2018-06-12T12:51:29.974Z,3.77
2018-06-12T12:53:58.326Z,4.60
2018-06-12T12:56:27.327Z,4.30
2018-06-12T12:58:56.340Z,4.73
2018-06-12T13:01:24.625Z,4.47
2018-06-12T13:03:52.990Z,4.60
2018-06-12T13:06:22.749Z,4.60
2018-06-12T13:08:51.621Z,4.10
2018-06-12T13:11:20.374Z,4.77
2018-06-12T13:13:48.638Z,4.90
2018-06-12T13:16:17.837Z,5.07
2018-06-12T13:18:46.962Z,4.50
2018-06-12T13:21:15.255Z,4.20
2018-06-12T13:23:44.287Z,5.77
2018-06-12T13:26:12.647Z,5.50
2018-06-12T13:28:41.968Z,4.47
2018-06-12T13:31:11.372Z,4.70
2018-06-12T13:33:39.794Z,4.67
2018-06-12T13:36:09.059Z,5.00
2018-06-12T13:38:38.602Z,4.67
2018-06-12T13:41:07.160Z,5.07
2018-06-12T13:43:36.353Z,5.13
2018-06-12T13:46:04.618Z,4.90
2018-06-12T13:48:33.006Z,4.50
2018-06-12T13:51:01.447Z,5.20
2018-06-12T13:53:30.390Z,5.13
2018-06-12T13:55:58.653Z,5.33
2018-06-12T13:58:27.675Z,4.83
2018-06-12T14:00:57.112Z,5.30
2018-06-12T14:03:25.736Z,4.70
2018-06-12T14:05:54.030Z,5.07
2018-06-12T14:08:35.019Z,5.30
2018-06-12T14:11:25.905Z,5.53
2018-06-12T14:16:49.484Z,4.97
2018-06-12T14:19:29.061Z,5.43
2018-06-12T14:25:13.059Z,5.67
2018-06-12T14:28:10.019Z,6.13
2018-06-12T14:31:29.035Z,6.40
2018-06-12T14:34:06.220Z,6.47
2018-06-12T14:42:34.444Z,5.87
2018-06-12T14:45:32.056Z,6.40
2018-06-12T14:51:39.375Z,6.57
2018-06-12T15:12:54.068Z,6.17
2018-06-12T15:18:38.875Z,6.70
2018-06-12T15:21:33.429Z,6.50
2018-06-12T15:27:55.590Z,6.77
2018-06-12T15:30:49.977Z,6.00
2018-06-12T15:33:29.298Z,5.90
2018-06-12T15:36:11.243Z,5.95
2018-06-12T15:42:05.287Z,6.00
2018-06-12T15:44:51.487Z,6.00
2018-06-12T15:50:18.777Z,5.13
2018-06-12T15:56:05.924Z,5.50
2018-06-12T15:58:49.115Z,5.27
2018-06-12T16:01:36.589Z,5.57
2018-06-12T16:04:12.008Z,5.63
2018-06-12T16:06:49.684Z,5.33
2018-06-12T16:09:34.494Z,5.47
2018-06-12T16:12:53.541Z,5.47
2018-06-12T16:15:45.366Z,5.33
2018-06-12T16:21:24.728Z,5.33
2018-06-12T16:24:11.843Z,5.67
2018-06-12T16:26:53.119Z,6.33
2018-06-12T16:32:46.324Z,5.63
2018-06-12T16:35:41.051Z,5.93
2018-06-12T16:45:20.493Z,5.90
2018-06-12T17:08:35.096Z,5.63
2018-06-12T17:20:40.951Z,5.30
2018-06-12T17:31:40.189Z,5.57
2018-06-12T17:34:09.823Z,5.33
2018-06-12T17:36:40.130Z,5.77
2018-06-12T17:39:09.720Z,5.60
2018-06-12T17:41:39.342Z,5.03
2018-06-12T17:44:10.034Z,5.57
2018-06-12T17:46:39.745Z,6.47
2018-06-12T17:49:16.023Z,5.53
2018-06-12T17:51:47.544Z,4.90
2018-06-12T17:54:19.199Z,5.60
2018-06-12T17:57:01.029Z,5.07
2018-06-12T17:59:33.112Z,5.17
2018-06-12T18:02:04.096Z,5.90
2018-06-12T18:04:36.253Z,5.50
2018-06-12T18:07:13.378Z,5.27
2018-06-12T18:09:46.284Z,5.20
2018-06-12T18:12:16.987Z,5.40
2018-06-12T18:14:49.508Z,5.40
2018-06-12T18:17:51.488Z,5.00
2018-06-12T18:20:21.750Z,5.70
2018-06-12T18:22:52.029Z,5.50
2018-06-12T18:25:22.159Z,5.87
2018-06-12T18:27:54.890Z,5.60
2018-06-12T18:30:24.990Z,5.43
2018-06-12T18:32:54.590Z,5.37
2018-06-12T18:35:24.266Z,5.33
2018-06-12T18:37:54.443Z,5.37
2018-06-12T18:40:23.968Z,5.47
2018-06-12T18:42:53.554Z,5.10
2018-06-12T18:45:22.782Z,5.43
2018-06-12T18:47:52.719Z,5.43
2018-06-12T18:50:22.044Z,5.77
2018-06-12T18:52:51.876Z,5.67
2018-06-12T18:55:21.137Z,5.80
2018-06-12T18:57:51.285Z,5.60
2018-06-12T19:00:20.841Z,5.73
2018-06-12T19:02:50.394Z,6.00
2018-06-12T19:05:19.994Z,6.00
2018-06-12T19:07:49.654Z,5.83
2018-06-12T19:10:20.577Z,5.73
2018-06-12T19:12:51.126Z,6.27
2018-06-12T19:15:22.809Z,6.83
2018-06-12T19:17:52.052Z,6.20
2018-06-12T19:20:22.665Z,6.67
2018-06-12T19:22:52.684Z,6.23
2018-06-12T19:25:23.190Z,6.20
2018-06-12T19:27:57.505Z,6.57
2018-06-12T19:30:27.233Z,6.47
2018-06-12T19:32:57.932Z,6.20
2018-06-12T19:35:27.606Z,6.27
2018-06-12T19:37:58.975Z,6.33
2018-06-12T19:40:28.746Z,6.17
2018-06-12T19:42:58.768Z,6.57
2018-06-12T19:45:29.603Z,6.10
2018-06-12T19:47:58.232Z,6.20
2018-06-12T19:50:27.114Z,5.90
2018-06-12T19:52:55.679Z,8.70
2018-06-12T19:55:24.381Z,5.90
2018-06-12T19:57:52.754Z,6.00
2018-06-12T20:00:21.330Z,7.50
2018-06-12T20:02:49.615Z,6.43
2018-06-12T20:05:17.970Z,5.83
2018-06-12T20:07:52.818Z,6.10
2018-06-12T20:10:21.201Z,6.23
2018-06-12T20:12:49.519Z,5.90
2018-06-12T20:15:19.709Z,5.40
2018-06-12T20:17:49.111Z,5.80
2018-06-12T20:20:19.216Z,6.13
2018-06-12T20:22:48.956Z,6.00
2018-06-12T20:25:19.657Z,5.77
2018-06-12T20:27:49.348Z,5.60
2018-06-12T20:30:19.079Z,5.43
2018-06-12T20:32:48.597Z,5.60
2018-06-12T20:35:18.343Z,6.43
2018-06-12T20:37:48.548Z,6.20
2018-06-12T20:40:18.638Z,5.53
2018-06-12T20:42:48.555Z,6.00
2018-06-12T20:45:20.889Z,6.17
2018-06-12T20:47:50.081Z,6.13
2018-06-12T20:50:20.032Z,6.67
2018-06-12T20:52:57.145Z,6.53
2018-06-12T20:55:37.289Z,6.43
2018-06-12T20:58:11.498Z,6.80
2018-06-12T21:00:45.797Z,6.37
2018-06-12T21:03:16.080Z,11.40
2018-06-12T21:05:50.941Z,9.23
2018-06-12T21:08:24.271Z,21.97
2018-06-12T21:10:54.211Z,6.90
2018-06-12T21:13:24.103Z,9.07
2018-06-12T21:15:53.632Z,6.67
2018-06-12T21:18:23.722Z,6.47
2018-06-12T21:20:52.987Z,6.70
2018-06-12T21:23:22.655Z,7.37
2018-06-12T21:25:52.006Z,7.50
2018-06-12T21:28:21.445Z,7.57
2018-06-12T21:30:50.956Z,7.10
2018-06-12T21:33:20.433Z,7.60
2018-06-12T21:35:49.578Z,6.93
2018-06-12T21:38:19.011Z,7.90
2018-06-12T21:40:48.390Z,7.47
2018-06-12T21:43:17.799Z,7.70
2018-06-12T21:45:47.258Z,7.43
2018-06-12T21:48:16.861Z,7.27
2018-06-12T21:50:46.435Z,7.80
2018-06-12T21:53:15.780Z,7.90
2018-06-12T21:55:45.074Z,8.10
2018-06-12T21:58:14.540Z,7.70
2018-06-12T22:00:43.722Z,7.40
2018-06-12T22:03:13.198Z,8.00
2018-06-12T22:05:43.295Z,8.40
2018-06-12T22:08:13.196Z,7.80
2018-06-12T22:10:43.054Z,7.90
2018-06-12T22:13:12.745Z,9.83
2018-06-12T22:15:42.860Z,8.10
2018-06-12T22:18:12.448Z,8.83
2018-06-12T22:20:42.015Z,8.30
2018-06-12T22:23:12.267Z,7.80
2018-06-12T22:25:42.187Z,7.50
2018-06-12T22:28:13.401Z,8.00
2018-06-12T22:30:43.562Z,8.33
2018-06-12T22:33:13.459Z,7.97
2018-06-12T22:35:43.314Z,8.47
2018-06-12T22:38:16.975Z,8.63
2018-06-12T22:40:46.983Z,8.20
2018-06-12T22:43:16.976Z,8.17
2018-06-12T22:45:47.583Z,8.10
2018-06-12T22:48:17.260Z,7.77
2018-06-12T22:50:47.366Z,8.20
2018-06-12T22:53:17.171Z,8.13
2018-06-12T22:55:46.940Z,8.50
2018-06-12T22:58:17.023Z,8.17
2018-06-12T23:00:46.387Z,8.67
2018-06-12T23:03:16.682Z,8.77
2018-06-12T23:05:46.171Z,8.77
2018-06-12T23:08:16.381Z,9.03
2018-06-12T23:10:46.009Z,8.93
2018-06-12T23:13:15.562Z,8.77
2018-06-12T23:15:45.157Z,8.40
2018-06-12T23:18:14.932Z,8.93
2018-06-12T23:21:58.266Z,9.20
2018-06-12T23:24:28.805Z,8.60
2018-06-12T23:26:58.325Z,9.13
2018-06-12T23:29:28.199Z,8.33
2018-06-12T23:31:57.914Z,8.70
2018-06-12T23:34:27.405Z,8.30
2018-06-12T23:36:57.163Z,8.33
2018-06-12T23:39:27.584Z,8.17
2018-06-12T23:41:56.994Z,7.77
2018-06-12T23:44:27.203Z,7.50
2018-06-12T23:46:56.798Z,7.90
2018-06-12T23:49:26.227Z,7.33
2018-06-12T23:51:55.885Z,7.73
2018-06-12T23:54:25.433Z,7.37
2018-06-12T23:56:55.017Z,6.93
2018-06-12T23:59:24.416Z,7.23
